Time;durP1;ratioP1;P1;durP2;ratioP2;P2;SDS_P1;SDS_P2;PMS_P1;PMS_P2;Temp;Humidity;BMP_temperature;BMP_pressure;BME280_temperature;BME280_humidity;BME280_pressure;Samples;Min_cycle;Max_cycle;Signal;HPM_P1;HPM_P2
2022/11/20 00:00:48;;;;;;;23.60;21.20;;;-0.10;99.90;;;;;;2069775;28;20041;-71
2022/11/20 00:01:48;;;;;;;24.88;22.38;;;0.00;99.90;;;;;;2070702;28;20104;-71
2022/11/20 00:02:49;;;;;;;24.67;22.00;;;-0.10;99.90;;;;;;2070236;28;20030;-71
2022/11/20 00:03:51;;;;;;;24.45;21.90;;;-0.10;99.90;;;;;;2070418;28;20034;-71
2022/11/20 00:04:51;;;;;;;25.40;22.75;;;-0.10;99.90;;;;;;2071262;28;20116;-71
2022/11/20 00:05:52;;;;;;;25.80;23.17;;;-0.10;99.90;;;;;;2070539;28;20024;-71
2022/11/20 00:06:52;;;;;;;25.15;22.50;;;-0.10;99.90;;;;;;2070246;28;20114;-71
2022/11/20 00:07:53;;;;;;;23.90;21.30;;;-0.10;99.90;;;;;;2069929;28;20034;-71
2022/11/20 00:08:56;;;;;;;29.30;24.02;;;-0.10;99.90;;;;;;2061574;28;20030;-71
2022/11/20 00:09:56;;;;;;;24.30;21.88;;;-0.10;99.90;;;;;;2069750;28;20034;-71
2022/11/20 00:10:57;;;;;;;24.15;21.58;;;-0.10;99.90;;;;;;2070024;28;20109;-71
2022/11/20 00:11:57;;;;;;;24.02;21.52;;;0.00;99.90;;;;;;2069277;28;20053;-71
2022/11/20 00:12:58;;;;;;;26.65;23.95;;;-0.10;99.90;;;;;;2069059;28;20034;-71
2022/11/20 00:14:01;;;;;;;27.10;24.38;;;0.00;99.90;;;;;;2069267;28;20080;-71
2022/11/20 00:15:01;;;;;;;28.88;25.45;;;0.00;99.90;;;;;;2067936;28;20034;-71
2022/11/20 00:16:04;;;;;;;28.88;25.85;;;0.00;99.90;;;;;;2070525;28;20048;-71
2022/11/20 00:17:04;;;;;;;28.40;25.42;;;0.00;99.90;;;;;;2068631;28;20117;-71
2022/11/20 00:18:05;;;;;;;29.77;26.60;;;0.00;99.90;;;;;;2069516;28;20034;-71
2022/11/20 00:19:06;;;;;;;28.00;25.17;;;0.00;99.90;;;;;;2067690;28;20109;-71
2022/11/20 00:20:07;;;;;;;26.80;24.08;;;0.00;99.90;;;;;;2067640;28;20026;-71
2022/11/20 00:21:14;;;;;;;25.85;23.15;;;0.00;99.90;;;;;;2070952;28;20029;-71
2022/11/20 00:22:17;;;;;;;28.55;25.45;;;0.00;99.90;;;;;;2070197;28;20058;-71
2022/11/20 00:23:18;;;;;;;28.52;25.35;;;0.00;99.90;;;;;;2069345;28;20588;-71
2022/11/20 00:24:19;;;;;;;30.63;27.33;;;0.00;99.90;;;;;;2070668;28;20034;-71
2022/11/20 00:25:19;;;;;;;29.35;26.15;;;0.00;99.90;;;;;;2069647;28;20080;-71
2022/11/20 00:26:21;;;;;;;28.67;25.15;;;0.10;99.90;;;;;;2068753;28;20038;-71
2022/11/20 00:27:21;;;;;;;26.85;23.95;;;0.00;99.90;;;;;;2068453;28;21040;-71
2022/11/20 00:28:22;;;;;;;27.75;24.75;;;0.10;99.90;;;;;;2069401;28;20030;-71
2022/11/20 00:29:22;;;;;;;26.70;23.88;;;0.10;99.90;;;;;;2070737;28;20378;-75
2022/11/20 00:30:23;;;;;;;28.98;25.88;;;0.10;99.90;;;;;;2070871;28;20034;-71
2022/11/20 00:31:24;;;;;;;28.63;25.60;;;0.10;99.90;;;;;;2070043;28;20029;-71
2022/11/20 00:32:24;;;;;;;31.10;26.27;;;0.10;99.90;;;;;;2069695;28;20060;-71
2022/11/20 00:33:25;;;;;;;32.08;28.67;;;0.10;99.90;;;;;;2069313;28;20022;-71
2022/11/20 00:34:25;;;;;;;31.83;27.55;;;0.10;99.90;;;;;;2067808;28;20156;-71
2022/11/20 00:35:26;;;;;;;28.33;25.33;;;0.10;99.90;;;;;;2070217;28;20076;-71
2022/11/20 00:36:28;;;;;;;28.80;25.70;;;0.10;99.90;;;;;;2069533;28;20022;-71
2022/11/20 00:37:29;;;;;;;27.58;24.67;;;0.10;99.90;;;;;;2068307;28;20033;-71
2022/11/20 00:38:30;;;;;;;27.75;24.88;;;0.20;99.90;;;;;;2069524;28;20113;-71
2022/11/20 00:39:31;;;;;;;25.92;23.25;;;0.20;99.90;;;;;;2068399;28;20470;-71
2022/11/20 00:40:31;;;;;;;27.70;23.52;;;0.20;99.90;;;;;;2069063;28;20383;-71
2022/11/20 00:41:32;;;;;;;29.25;26.08;;;0.20;99.90;;;;;;2069544;28;20030;-71
2022/11/20 00:42:33;;;;;;;29.98;26.77;;;0.20;99.90;;;;;;2069687;28;20080;-71
2022/11/20 00:43:34;;;;;;;31.63;27.50;;;0.20;99.90;;;;;;2069762;28;20026;-71
2022/11/20 00:44:35;;;;;;;30.58;26.48;;;0.30;99.90;;;;;;2068377;28;20061;-71
2022/11/20 00:45:35;;;;;;;30.58;26.00;;;0.30;99.90;;;;;;2069575;28;20049;-71
2022/11/20 00:46:36;;;;;;;30.77;26.13;;;0.30;99.90;;;;;;2068670;28;20062;-71
2022/11/20 00:47:37;;;;;;;31.45;27.90;;;0.30;99.90;;;;;;2068783;28;20033;-71
2022/11/20 00:48:37;;;;;;;29.92;26.80;;;0.30;99.90;;;;;;2069492;28;20490;-71
2022/11/20 00:49:38;;;;;;;28.75;25.65;;;0.30;99.90;;;;;;2069438;28;20201;-71
2022/11/20 00:50:40;;;;;;;29.98;26.75;;;0.30;99.90;;;;;;2067853;28;20576;-71
2022/11/20 00:51:41;;;;;;;29.33;26.08;;;0.30;99.90;;;;;;2069920;28;20026;-71
2022/11/20 00:52:41;;;;;;;27.48;24.40;;;0.30;99.90;;;;;;2068721;28;20029;-71
2022/11/20 00:53:42;;;;;;;31.15;27.85;;;0.30;99.90;;;;;;2068699;28;20079;-71
2022/11/20 00:54:43;;;;;;;31.50;28.17;;;0.40;99.90;;;;;;2068619;28;20026;-71
2022/11/20 00:55:55;;;;;;;29.38;25.80;;;0.40;99.90;;;;;;2067824;28;20057;-71
2022/11/20 00:56:56;;;;;;;28.42;25.15;;;0.40;99.90;;;;;;2069225;28;20033;-71
2022/11/20 00:57:57;;;;;;;24.83;22.33;;;0.40;99.90;;;;;;2068439;28;20029;-71
2022/11/20 00:58:59;;;;;;;27.67;24.80;;;0.40;99.90;;;;;;2069642;28;20022;-71
2022/11/20 01:00:00;;;;;;;26.63;23.70;;;0.40;99.90;;;;;;2069506;28;20029;-71
2022/11/20 01:01:12;;;;;;;26.15;23.50;;;0.40;99.90;;;;;;2068284;28;20032;-71
2022/11/20 01:02:13;;;;;;;27.30;24.45;;;0.40;99.90;;;;;;2069150;28;20083;-71
2022/11/20 01:03:13;;;;;;;26.27;23.48;;;0.30;99.90;;;;;;2068219;28;20081;-71
2022/11/20 01:04:13;;;;;;;26.25;22.98;;;0.30;99.90;;;;;;2068434;28;20052;-71
2022/11/20 01:05:14;;;;;;;27.70;24.73;;;0.40;99.90;;;;;;2068655;28;20073;-71
2022/11/20 01:06:24;;;;;;;26.80;23.73;;;0.40;99.90;;;;;;2068112;28;20026;-71
2022/11/20 01:07:24;;;;;;;26.90;24.02;;;0.40;99.90;;;;;;2067989;28;20033;-71
2022/11/20 01:08:24;;;;;;;27.42;24.13;;;0.40;99.90;;;;;;2068213;28;20022;-71
2022/11/20 01:09:25;;;;;;;26.45;22.80;;;0.40;99.90;;;;;;2069303;28;20026;-71
2022/11/20 01:10:25;;;;;;;29.75;26.55;;;0.40;99.90;;;;;;2069249;28;20036;-71
2022/11/20 01:11:29;;;;;;;30.52;25.77;;;0.40;99.90;;;;;;2068164;28;20402;-71
2022/11/20 01:12:29;;;;;;;27.65;24.40;;;0.40;99.90;;;;;;2068275;28;20493;-71
2022/11/20 01:13:36;;;;;;;28.08;25.05;;;0.40;99.90;;;;;;2066694;28;20444;-71
2022/11/20 01:14:37;;;;;;;25.73;22.88;;;0.40;99.90;;;;;;2069234;28;20026;-71
2022/11/20 01:15:37;;;;;;;27.80;24.90;;;0.30;99.90;;;;;;2068595;28;20055;-71
2022/11/20 01:16:41;;;;;;;29.98;24.23;;;0.40;99.90;;;;;;2068937;28;20061;-71
2022/11/20 01:17:41;;;;;;;28.95;25.27;;;0.40;99.90;;;;;;2068957;28;20079;-71
2022/11/20 01:18:48;;;;;;;29.70;26.60;;;0.40;99.90;;;;;;2068774;28;20022;-71
2022/11/20 01:19:50;;;;;;;30.15;24.85;;;0.40;99.90;;;;;;2068774;28;20032;-71
2022/11/20 01:20:51;;;;;;;27.15;23.83;;;0.30;99.90;;;;;;2069935;28;20029;-71
2022/11/20 01:21:53;;;;;;;26.02;23.27;;;0.30;99.90;;;;;;2068384;28;20044;-71
2022/11/20 01:22:54;;;;;;;28.40;25.35;;;0.30;99.90;;;;;;2069130;28;20040;-71
2022/11/20 01:23:55;;;;;;;26.45;23.75;;;0.30;99.90;;;;;;2068381;28;20033;-71
2022/11/20 01:24:55;;;;;;;26.17;23.42;;;0.30;99.90;;;;;;2068012;28;20081;-71
2022/11/20 01:25:56;;;;;;;27.38;24.48;;;0.30;99.90;;;;;;2069732;28;20036;-71
2022/11/20 01:26:56;;;;;;;35.20;27.33;;;0.30;99.90;;;;;;2069014;28;20056;-71
2022/11/20 01:27:57;;;;;;;26.75;23.70;;;0.30;99.90;;;;;;2067390;28;20029;-71
2022/11/20 01:28:59;;;;;;;28.17;25.20;;;0.30;99.90;;;;;;2068741;28;20117;-71
2022/11/20 01:29:59;;;;;;;26.23;23.40;;;0.30;99.90;;;;;;2070190;28;20373;-71
2022/11/20 01:31:00;;;;;;;26.23;23.52;;;0.30;99.90;;;;;;2068562;28;20092;-71
2022/11/20 01:32:01;;;;;;;26.40;23.48;;;0.30;99.90;;;;;;2068903;28;20100;-71
2022/11/20 01:33:01;;;;;;;29.60;25.77;;;0.30;99.90;;;;;;2067484;28;20105;-71
2022/11/20 01:34:10;;;;;;;27.85;24.92;;;0.30;99.90;;;;;;2071143;28;20040;-71
2022/11/20 01:35:11;;;;;;;27.25;24.38;;;0.30;99.90;;;;;;2069493;28;20084;-71
2022/11/20 01:36:12;;;;;;;28.70;24.60;;;0.30;99.90;;;;;;2068773;28;20022;-71
2022/11/20 01:37:13;;;;;;;26.92;24.05;;;0.30;99.90;;;;;;2068574;28;20026;-71
2022/11/20 01:38:15;;;;;;;27.48;24.58;;;0.30;99.90;;;;;;2068351;28;20038;-71
2022/11/20 01:39:24;;;;;;;27.75;24.83;;;0.20;99.90;;;;;;2067872;28;20061;-71
2022/11/20 01:40:24;;;;;;;27.48;24.63;;;0.30;99.90;;;;;;2069138;28;20044;-71
2022/11/20 01:44:21;;;;;;;25.65;22.90;;;0.20;99.90;;;;;;2068209;28;20056;-71
2022/11/20 01:45:47;;;;;;;29.17;24.58;;;0.20;99.90;;;;;;2068001;28;20034;-71
2022/11/20 01:46:58;;;;;;;25.05;21.60;;;0.20;99.90;;;;;;2071347;28;20096;-71
2022/11/20 01:47:59;;;;;;;24.85;22.15;;;0.20;99.90;;;;;;2069634;28;20029;-71
2022/11/20 01:49:10;;;;;;;26.17;22.20;;;0.10;99.90;;;;;;2069456;28;20056;-71
2022/11/20 01:50:23;;;;;;;27.33;24.45;;;0.10;99.90;;;;;;2069542;28;20087;-71
2022/11/20 01:51:39;;;;;;;28.85;25.05;;;0.10;99.90;;;;;;2066836;28;20141;-71
2022/11/20 01:52:45;;;;;;;27.50;24.42;;;0.10;99.90;;;;;;2067438;28;20022;-71
2022/11/20 01:53:46;;;;;;;29.42;26.35;;;0.10;99.90;;;;;;2067252;28;20038;-71
2022/11/20 01:55:04;;;;;;;29.15;26.05;;;0.10;99.90;;;;;;2067818;28;20033;-71
2022/11/20 01:56:09;;;;;;;25.17;22.58;;;0.10;99.90;;;;;;2066826;28;20062;-71
2022/11/20 01:57:11;;;;;;;27.88;24.88;;;0.10;99.90;;;;;;2067819;28;20049;-71
2022/11/20 01:58:13;;;;;;;27.30;23.80;;;0.10;99.90;;;;;;2070395;28;20030;-71
2022/11/20 01:59:17;;;;;;;27.92;24.95;;;0.10;99.90;;;;;;2069458;28;20017;-71
2022/11/20 02:00:19;;;;;;;28.92;25.83;;;0.10;99.90;;;;;;2068075;28;20053;-71
2022/11/20 02:01:21;;;;;;;28.65;25.58;;;0.10;99.90;;;;;;2068270;28;20033;-71
2022/11/20 02:02:22;;;;;;;27.52;24.63;;;0.10;99.90;;;;;;2068916;28;20084;-71
2022/11/20 02:03:23;;;;;;;27.42;24.48;;;0.10;99.90;;;;;;2068774;28;20030;-71
2022/11/20 02:04:25;;;;;;;25.00;22.40;;;0.10;99.90;;;;;;2068348;28;20034;-71
2022/11/20 02:05:38;;;;;;;28.27;24.80;;;0.10;99.90;;;;;;2068913;28;20497;-71
2022/11/20 02:06:55;;;;;;;28.00;25.10;;;0.10;99.90;;;;;;2075320;28;20465;-71
2022/11/20 02:07:57;;;;;;;29.05;25.38;;;0.10;99.90;;;;;;2073840;28;20489;-71
2022/11/20 02:08:57;;;;;;;30.20;25.13;;;0.10;99.90;;;;;;2068794;28;20017;-71
2022/11/20 02:09:58;;;;;;;27.50;24.00;;;0.10;99.90;;;;;;2068446;28;20026;-71
2022/11/20 02:10:58;;;;;;;26.88;24.10;;;0.10;99.90;;;;;;2068756;28;20022;-71
2022/11/20 02:12:00;;;;;;;29.35;26.15;;;0.10;99.90;;;;;;2069256;28;20647;-71
2022/11/20 02:14:22;;;;;;;29.00;26.00;;;0.10;99.90;;;;;;2068416;28;20034;-71
2022/11/20 02:15:22;;;;;;;25.33;22.48;;;0.10;99.90;;;;;;2067568;28;20277;-71
2022/11/20 02:16:28;;;;;;;30.33;27.02;;;0.10;99.90;;;;;;2067915;28;20053;-71
2022/11/20 02:17:29;;;;;;;30.10;26.83;;;0.10;99.90;;;;;;2069935;28;21067;-71
2022/11/20 02:18:30;;;;;;;30.08;25.92;;;0.10;99.90;;;;;;2067563;28;20596;-71
2022/11/20 02:19:31;;;;;;;29.35;25.80;;;0.10;99.90;;;;;;2069007;28;20037;-71
2022/11/20 02:20:33;;;;;;;28.95;25.65;;;0.10;99.90;;;;;;2068553;28;20105;-71
2022/11/20 02:21:40;;;;;;;27.98;23.73;;;0.10;99.90;;;;;;2068143;28;20026;-71
2022/11/20 02:22:57;;;;;;;25.73;22.98;;;0.10;99.90;;;;;;2068615;28;20029;-71
2022/11/20 02:24:04;;;;;;;28.88;25.65;;;0.10;99.90;;;;;;2067977;28;20132;-71
2022/11/20 02:25:06;;;;;;;27.38;22.90;;;0.10;99.90;;;;;;2068268;28;20029;-71
2022/11/20 02:26:12;;;;;;;28.27;25.23;;;0.10;99.90;;;;;;2067391;28;21158;-71
2022/11/20 02:27:14;;;;;;;26.48;23.48;;;0.10;99.90;;;;;;2068758;28;20083;-71
2022/11/20 02:28:15;;;;;;;28.08;25.25;;;0.10;99.90;;;;;;2067257;28;20405;-71
2022/11/20 02:29:23;;;;;;;28.17;24.40;;;0.10;99.90;;;;;;2068441;28;20050;-71
2022/11/20 02:30:23;;;;;;;27.65;24.65;;;0.10;99.90;;;;;;2069800;28;20037;-71
2022/11/20 02:31:24;;;;;;;26.33;23.65;;;0.10;99.90;;;;;;2069850;28;20120;-71
2022/11/20 02:32:30;;;;;;;28.20;25.17;;;0.10;99.90;;;;;;2068012;28;20034;-71
2022/11/20 02:33:31;;;;;;;26.00;23.30;;;0.10;99.90;;;;;;2078766;28;20842;-71
2022/11/20 02:34:31;;;;;;;27.00;24.15;;;0.10;99.90;;;;;;2078605;28;20617;-71
2022/11/20 02:35:32;;;;;;;26.00;23.35;;;0.10;99.90;;;;;;2069722;28;20148;-71
2022/11/20 02:36:35;;;;;;;26.88;24.05;;;0.10;99.90;;;;;;2069975;28;20421;-71
2022/11/20 02:37:38;;;;;;;26.42;23.52;;;0.10;99.90;;;;;;2075265;28;20561;-71
2022/11/20 02:38:39;;;;;;;26.60;23.08;;;0.10;99.90;;;;;;2076084;28;20030;-71
2022/11/20 02:39:40;;;;;;;28.98;25.88;;;0.10;99.90;;;;;;2069672;28;20117;-71
2022/11/20 02:40:42;;;;;;;25.85;23.08;;;0.10;99.90;;;;;;2061645;28;20038;-71
2022/11/20 02:41:43;;;;;;;27.05;24.25;;;0.10;99.90;;;;;;2070279;28;20022;-71
2022/11/20 02:42:43;;;;;;;28.60;25.52;;;0.10;99.90;;;;;;2070106;28;20238;-71
2022/11/20 02:43:44;;;;;;;26.33;23.52;;;0.10;99.90;;;;;;2069138;28;20038;-71
2022/11/20 02:44:44;;;;;;;27.27;24.48;;;0.10;99.90;;;;;;2071142;28;21169;-71
2022/11/20 02:45:45;;;;;;;27.77;24.88;;;0.10;99.90;;;;;;2069310;28;20046;-71
2022/11/20 02:46:45;;;;;;;28.30;24.05;;;0.10;99.90;;;;;;2069415;28;20034;-71
2022/11/20 02:47:46;;;;;;;26.33;23.50;;;0.10;99.90;;;;;;2068710;28;20030;-71
2022/11/20 02:48:46;;;;;;;25.40;22.85;;;0.10;99.90;;;;;;2068202;28;20675;-71
2022/11/20 02:49:47;;;;;;;26.55;23.52;;;0.10;99.90;;;;;;2069628;28;20034;-71
2022/11/20 02:50:47;;;;;;;27.40;24.48;;;0.00;99.90;;;;;;2068425;28;20485;-71
2022/11/20 02:51:48;;;;;;;25.48;22.95;;;0.00;99.90;;;;;;2069617;28;20468;-71
2022/11/20 02:52:48;;;;;;;26.77;23.25;;;0.00;99.90;;;;;;2066986;28;20026;-71
2022/11/20 02:53:49;;;;;;;27.25;24.38;;;0.00;99.90;;;;;;2069548;28;20039;-71
2022/11/20 02:54:50;;;;;;;27.38;24.58;;;0.00;99.90;;;;;;2068451;28;20730;-71
2022/11/20 02:55:50;;;;;;;27.38;23.02;;;0.00;99.90;;;;;;2070733;28;20033;-71
2022/11/20 02:56:51;;;;;;;27.00;23.48;;;0.00;99.90;;;;;;2070666;28;20030;-71
2022/11/20 02:57:51;;;;;;;26.50;23.67;;;0.00;99.90;;;;;;2069869;28;20080;-71
2022/11/20 02:58:52;;;;;;;27.50;24.58;;;0.00;99.90;;;;;;2070512;28;20032;-71
2022/11/20 02:59:53;;;;;;;28.73;25.23;;;0.00;99.90;;;;;;2070915;28;20462;-71
2022/11/20 03:00:54;;;;;;;25.60;23.00;;;0.00;99.90;;;;;;2068317;28;20425;-71
2022/11/20 03:01:54;;;;;;;25.05;22.58;;;0.00;99.90;;;;;;2068571;28;20030;-71
2022/11/20 03:02:55;;;;;;;26.10;23.40;;;0.00;99.90;;;;;;2069280;28;20025;-71
2022/11/20 03:03:55;;;;;;;25.67;23.05;;;0.00;99.90;;;;;;2070408;28;20031;-71
2022/11/20 03:04:56;;;;;;;24.67;22.13;;;-0.10;99.90;;;;;;2071391;28;20061;-71
2022/11/20 03:05:59;;;;;;;28.20;25.30;;;-0.10;99.90;;;;;;2067721;28;20065;-71
2022/11/20 03:07:00;;;;;;;25.10;22.50;;;-0.10;99.90;;;;;;2069604;28;20433;-71
2022/11/20 03:08:01;;;;;;;27.60;24.85;;;-0.10;99.90;;;;;;2070080;28;20025;-71
2022/11/20 03:09:01;;;;;;;27.02;24.13;;;-0.10;99.90;;;;;;2068837;28;20025;-71
2022/11/20 03:10:02;;;;;;;27.65;24.85;;;-0.10;99.90;;;;;;2071253;28;20667;-71
2022/11/20 03:11:05;;;;;;;27.23;23.67;;;-0.10;99.90;;;;;;2071331;28;20025;-71
2022/11/20 03:12:06;;;;;;;24.98;22.38;;;-0.10;99.90;;;;;;2069468;28;20026;-71
2022/11/20 03:13:07;;;;;;;24.80;22.13;;;-0.10;99.90;;;;;;2062321;28;20029;-71
2022/11/20 03:14:08;;;;;;;24.50;21.85;;;-0.10;99.90;;;;;;2071679;28;20026;-71
2022/11/20 03:15:09;;;;;;;25.88;23.17;;;-0.10;99.90;;;;;;2069883;28;20693;-71
2022/11/20 03:16:16;;;;;;;28.00;24.70;;;-0.10;99.90;;;;;;2070032;28;20033;-71
2022/11/20 03:17:17;;;;;;;27.33;24.35;;;-0.10;99.90;;;;;;2069015;28;20172;-71
2022/11/20 03:18:17;;;;;;;27.75;24.77;;;-0.10;99.90;;;;;;2070050;28;20832;-71
2022/11/20 03:19:18;;;;;;;26.83;23.92;;;-0.10;99.90;;;;;;2070253;28;20021;-71
2022/11/20 03:20:18;;;;;;;25.65;22.98;;;-0.20;99.90;;;;;;2070979;28;20140;-71
2022/11/20 03:21:19;;;;;;;26.48;23.65;;;-0.20;99.90;;;;;;2069350;28;20022;-71
2022/11/20 03:22:19;;;;;;;24.13;21.70;;;-0.20;99.90;;;;;;2070650;28;20022;-71
2022/11/20 03:23:20;;;;;;;27.58;24.58;;;-0.20;99.90;;;;;;2070539;28;20033;-71
2022/11/20 03:24:20;;;;;;;26.42;23.58;;;-0.20;99.90;;;;;;2068783;28;20847;-71
2022/11/20 03:25:22;;;;;;;26.92;23.20;;;-0.20;99.90;;;;;;2067940;28;20026;-71
2022/11/20 03:26:24;;;;;;;26.63;23.75;;;-0.20;99.90;;;;;;2069147;28;20023;-71
2022/11/20 03:27:25;;;;;;;26.65;23.92;;;-0.20;99.90;;;;;;2069217;28;20121;-71
2022/11/20 03:28:25;;;;;;;26.35;23.63;;;-0.20;99.90;;;;;;2068648;28;20030;-71
2022/11/20 03:29:26;;;;;;;28.08;24.80;;;-0.20;99.90;;;;;;2069766;28;20030;-71
2022/11/20 03:30:26;;;;;;;25.65;22.85;;;-0.20;99.90;;;;;;2069624;28;20036;-71
2022/11/20 03:31:29;;;;;;;26.65;23.85;;;-0.30;99.90;;;;;;2071143;28;20034;-71
2022/11/20 03:32:30;;;;;;;25.67;23.00;;;-0.30;99.90;;;;;;2068668;28;20026;-71
2022/11/20 03:33:30;;;;;;;26.02;23.23;;;-0.30;99.90;;;;;;2068687;28;20025;-71
2022/11/20 03:34:31;;;;;;;24.75;21.60;;;-0.30;99.90;;;;;;2076978;28;20957;-71
2022/11/20 03:35:31;;;;;;;26.85;23.98;;;-0.30;99.90;;;;;;2076613;28;20096;-71
2022/11/20 03:36:32;;;;;;;25.92;23.23;;;-0.30;99.90;;;;;;2070335;28;20037;-71
2022/11/20 03:37:33;;;;;;;26.38;23.45;;;-0.30;99.90;;;;;;2068506;28;20034;-71
2022/11/20 03:38:34;;;;;;;25.30;22.60;;;-0.30;99.90;;;;;;2069174;28;20034;-71
2022/11/20 03:39:34;;;;;;;26.38;22.15;;;-0.30;99.90;;;;;;2069429;28;20029;-71
2022/11/20 03:40:35;;;;;;;29.88;23.63;;;-0.30;99.90;;;;;;2067783;28;20467;-71
2022/11/20 03:41:38;;;;;;;25.17;22.40;;;-0.30;99.90;;;;;;2068634;28;20073;-71
2022/11/20 03:42:47;;;;;;;26.80;23.90;;;-0.30;99.90;;;;;;2069500;28;20034;-71
2022/11/20 03:43:59;;;;;;;25.50;22.80;;;-0.30;99.90;;;;;;2069029;28;20033;-71
2022/11/20 03:45:00;;;;;;;25.95;23.15;;;-0.30;99.90;;;;;;2068764;28;20160;-71
2022/11/20 03:46:01;;;;;;;24.40;21.88;;;-0.30;99.90;;;;;;2067974;28;20038;-71
2022/11/20 03:47:01;;;;;;;26.73;23.35;;;-0.40;99.90;;;;;;2069056;28;20129;-71
2022/11/20 03:48:02;;;;;;;29.38;23.05;;;-0.30;99.90;;;;;;2069821;28;20113;-71
2022/11/20 03:49:03;;;;;;;25.45;22.75;;;-0.40;99.90;;;;;;2068651;28;20081;-71
2022/11/20 03:50:04;;;;;;;28.50;24.15;;;-0.40;99.90;;;;;;2068123;28;20512;-71
2022/11/20 03:51:07;;;;;;;26.50;23.67;;;-0.30;99.90;;;;;;2069714;28;20121;-71
2022/11/20 03:52:08;;;;;;;26.63;23.75;;;-0.30;99.90;;;;;;2070800;28;20026;-71
2022/11/20 03:53:11;;;;;;;27.45;23.85;;;-0.30;99.90;;;;;;2065916;28;20112;-71
2022/11/20 03:54:12;;;;;;;27.38;24.45;;;-0.30;99.90;;;;;;2068596;28;20037;-71
2022/11/20 03:55:12;;;;;;;27.48;24.55;;;-0.40;99.90;;;;;;2070253;28;20061;-71
2022/11/20 03:56:16;;;;;;;26.55;23.70;;;-0.40;99.90;;;;;;2070315;28;20037;-71
2022/11/20 03:57:16;;;;;;;27.52;24.63;;;-0.40;99.90;;;;;;2069349;28;20018;-71
2022/11/20 03:58:17;;;;;;;26.83;24.10;;;-0.40;99.90;;;;;;2069644;28;20045;-71
2022/11/20 03:59:18;;;;;;;27.77;24.88;;;-0.40;99.90;;;;;;2062347;28;20041;-71
2022/11/20 04:00:18;;;;;;;28.02;25.13;;;-0.30;99.90;;;;;;2069325;28;20022;-71
2022/11/20 04:01:22;;;;;;;27.50;24.65;;;-0.30;99.90;;;;;;2069357;28;20033;-71
2022/11/20 04:02:22;;;;;;;26.55;23.55;;;-0.30;99.90;;;;;;2069152;28;20033;-71
2022/11/20 04:03:23;;;;;;;26.85;24.05;;;-0.30;99.90;;;;;;2068652;28;20029;-71
2022/11/20 04:04:23;;;;;;;28.63;25.52;;;-0.30;99.90;;;;;;2069861;28;20847;-71
2022/11/20 04:05:24;;;;;;;28.75;25.75;;;-0.30;99.90;;;;;;2068687;28;20022;-71
2022/11/20 04:06:27;;;;;;;26.13;23.45;;;-0.30;99.90;;;;;;2069350;28;20029;-71
2022/11/20 04:07:28;;;;;;;25.45;22.88;;;-0.30;99.90;;;;;;2070902;28;20022;-71
2022/11/20 04:08:29;;;;;;;27.63;24.65;;;-0.30;99.90;;;;;;2069476;28;20026;-71
2022/11/20 04:09:30;;;;;;;28.58;24.00;;;-0.30;99.90;;;;;;2069553;28;20046;-71
2022/11/20 04:10:31;;;;;;;29.08;25.80;;;-0.30;99.90;;;;;;2070264;28;20018;-71
2022/11/20 04:11:33;;;;;;;28.73;25.60;;;-0.20;99.90;;;;;;2069482;28;20034;-71
2022/11/20 04:12:34;;;;;;;28.38;25.35;;;-0.30;99.90;;;;;;2068977;28;20387;-71
2022/11/20 04:13:35;;;;;;;29.67;26.60;;;-0.20;99.90;;;;;;2067147;28;20033;-71
2022/11/20 04:14:35;;;;;;;29.45;26.35;;;-0.20;99.90;;;;;;2069597;28;20030;-71
2022/11/20 04:15:36;;;;;;;27.17;24.30;;;-0.20;99.90;;;;;;2066849;28;20040;-71
2022/11/20 04:16:37;;;;;;;29.15;26.05;;;-0.20;99.90;;;;;;2069791;28;20437;-71
2022/11/20 04:17:37;;;;;;;28.13;25.10;;;-0.20;99.90;;;;;;2068723;28;20030;-71
2022/11/20 04:18:38;;;;;;;28.27;25.27;;;-0.20;99.90;;;;;;2069038;28;20561;-71
2022/11/20 04:19:39;;;;;;;28.75;25.40;;;-0.20;99.90;;;;;;2070119;28;20045;-71
2022/11/20 04:20:39;;;;;;;28.33;25.30;;;-0.20;99.90;;;;;;2069880;28;20132;-71
2022/11/20 04:21:40;;;;;;;28.88;23.73;;;-0.20;99.90;;;;;;2068983;28;20023;-71
2022/11/20 04:22:41;;;;;;;27.67;24.77;;;-0.10;99.90;;;;;;2070746;28;20117;-71
2022/11/20 04:23:41;;;;;;;28.63;25.65;;;-0.10;99.90;;;;;;2070046;28;20033;-71
2022/11/20 04:24:42;;;;;;;29.42;25.55;;;-0.10;99.90;;;;;;2070430;28;20137;-71
2022/11/20 04:25:42;;;;;;;28.90;25.83;;;-0.10;99.90;;;;;;2070436;28;20025;-71
2022/11/20 04:26:43;;;;;;;27.45;24.55;;;-0.10;99.90;;;;;;2070505;28;20057;-71
2022/11/20 04:27:43;;;;;;;26.80;24.00;;;-0.10;99.90;;;;;;2070650;28;20108;-71
2022/11/20 04:28:44;;;;;;;27.05;23.40;;;-0.10;99.90;;;;;;2069115;28;20120;-71
2022/11/20 04:29:44;;;;;;;28.13;25.20;;;-0.10;99.90;;;;;;2067989;28;20041;-71
2022/11/20 04:30:45;;;;;;;28.35;25.13;;;0.00;99.90;;;;;;2070263;28;20073;-71
2022/11/20 04:31:46;;;;;;;29.48;25.40;;;0.00;99.90;;;;;;2067955;28;20033;-71
2022/11/20 04:32:46;;;;;;;27.92;25.15;;;-0.10;99.90;;;;;;2068230;28;20045;-71
2022/11/20 04:33:47;;;;;;;29.55;26.25;;;0.00;99.90;;;;;;2067280;28;20065;-71
2022/11/20 04:34:47;;;;;;;31.52;26.83;;;0.00;99.90;;;;;;2068584;28;20458;-71
2022/11/20 04:35:48;;;;;;;31.80;28.50;;;0.00;99.90;;;;;;2069459;28;20033;-71
2022/11/20 04:36:48;;;;;;;31.40;28.10;;;0.00;99.90;;;;;;2070862;28;20104;-71
2022/11/20 04:37:51;;;;;;;30.05;26.95;;;0.00;99.90;;;;;;2070496;28;20034;-71
2022/11/20 04:38:57;;;;;;;31.27;27.08;;;0.00;99.90;;;;;;2068426;28;20029;-71
2022/11/20 04:39:58;;;;;;;29.67;26.55;;;0.00;99.90;;;;;;2068110;28;20026;-71
2022/11/20 04:41:00;;;;;;;28.83;25.85;;;0.00;99.90;;;;;;2067287;28;20023;-71
2022/11/20 04:43:19;;;;;;;28.50;25.42;;;0.00;99.90;;;;;;2069642;28;20026;-71
2022/11/20 04:44:20;;;;;;;27.55;24.50;;;0.00;99.90;;;;;;2067572;28;20030;-71
2022/11/20 04:45:21;;;;;;;28.67;25.67;;;0.00;99.90;;;;;;2068333;28;20025;-71
2022/11/20 04:46:21;;;;;;;29.52;26.48;;;0.00;99.90;;;;;;2069128;28;20054;-71
2022/11/20 04:47:22;;;;;;;28.95;26.02;;;0.10;99.90;;;;;;2066544;28;20088;-71
2022/11/20 04:48:24;;;;;;;30.75;27.42;;;0.10;99.90;;;;;;2067407;28;20115;-71
2022/11/20 04:49:25;;;;;;;32.20;28.65;;;0.10;99.90;;;;;;2068959;28;20062;-71
2022/11/20 04:50:25;;;;;;;29.85;26.75;;;0.10;99.90;;;;;;2067317;28;20030;-71
2022/11/20 04:51:27;;;;;;;28.75;25.67;;;0.10;99.90;;;;;;2069333;28;20057;-71
2022/11/20 04:52:27;;;;;;;30.70;26.92;;;0.10;99.90;;;;;;2069060;28;20025;-71
2022/11/20 04:53:28;;;;;;;29.38;26.20;;;0.20;99.90;;;;;;2068497;28;20129;-71
2022/11/20 04:54:28;;;;;;;30.33;27.05;;;0.20;99.90;;;;;;2069840;28;20026;-71
2022/11/20 04:55:29;;;;;;;29.95;25.70;;;0.20;99.90;;;;;;2068807;28;20080;-71
2022/11/20 04:56:29;;;;;;;29.30;26.23;;;0.20;99.90;;;;;;2067672;28;20033;-71
2022/11/20 04:57:30;;;;;;;31.33;26.58;;;0.20;99.90;;;;;;2066562;28;20029;-71
2022/11/20 04:58:30;;;;;;;29.60;26.40;;;0.20;99.90;;;;;;2069045;28;20026;-71
2022/11/20 04:59:31;;;;;;;27.95;25.00;;;0.20;99.90;;;;;;2070258;28;20069;-71
2022/11/20 05:00:32;;;;;;;31.08;26.67;;;0.30;99.90;;;;;;2069167;28;20022;-71
2022/11/20 05:01:32;;;;;;;28.00;25.00;;;0.30;99.90;;;;;;2071030;28;20390;-71
2022/11/20 05:02:33;;;;;;;30.48;27.05;;;0.30;99.90;;;;;;2069185;28;20025;-71
2022/11/20 05:03:33;;;;;;;29.30;26.02;;;0.30;99.90;;;;;;2068133;28;20109;-71
2022/11/20 05:04:34;;;;;;;28.15;25.00;;;0.30;99.90;;;;;;2068135;28;20041;-71
2022/11/20 05:05:35;;;;;;;27.10;24.20;;;0.30;99.90;;;;;;2069567;28;20125;-71
2022/11/20 05:06:35;;;;;;;30.40;25.10;;;0.30;99.90;;;;;;2069177;28;20409;-71
2022/11/20 05:07:35;;;;;;;28.27;25.27;;;0.40;99.90;;;;;;2069745;28;20033;-71
2022/11/20 05:08:38;;;;;;;28.38;25.45;;;0.40;99.90;;;;;;2069022;28;20852;-71
2022/11/20 05:09:39;;;;;;;27.20;24.40;;;0.40;99.90;;;;;;2069390;28;20033;-71
2022/11/20 05:10:39;;;;;;;28.30;24.77;;;0.40;99.90;;;;;;2066481;28;20029;-71
2022/11/20 05:11:40;;;;;;;30.45;26.50;;;0.40;99.90;;;;;;2068036;28;20053;-71
2022/11/20 05:12:41;;;;;;;27.52;24.23;;;0.40;99.90;;;;;;2068441;28;20463;-71
2022/11/20 05:13:42;;;;;;;31.40;26.17;;;0.40;99.90;;;;;;2075854;28;20040;-71
2022/11/20 05:14:42;;;;;;;29.23;26.13;;;0.50;99.90;;;;;;2076804;28;20059;-71
2022/11/20 05:15:43;;;;;;;30.00;26.02;;;0.50;99.90;;;;;;2070014;28;20112;-71
2022/11/20 05:16:43;;;;;;;28.27;25.02;;;0.50;99.90;;;;;;2068389;28;20088;-71
2022/11/20 05:17:48;;;;;;;28.23;25.33;;;0.50;99.90;;;;;;2070459;28;20124;-71
2022/11/20 05:18:50;;;;;;;28.63;25.05;;;0.50;99.90;;;;;;2069300;28;20091;-71
2022/11/20 05:19:50;;;;;;;27.08;24.38;;;0.50;99.90;;;;;;2067772;28;20036;-71
2022/11/20 05:20:56;;;;;;;28.55;25.48;;;0.50;99.90;;;;;;2068401;28;20033;-71
2022/11/20 05:21:57;;;;;;;29.35;26.25;;;0.50;99.90;;;;;;2068204;28;20037;-71